sensor_id;sensor_type;location;lat;lon;timestamp;P1;durP1;ratioP1;P2;durP2;ratioP2
64560;SDS011;50960;46.838;16.838;2023-07-30T00:00:00;1.30;;;1.20;;
64560;SDS011;50960;46.838;16.838;2023-07-30T00:02:27;1.00;;;1.00;;
64560;SDS011;50960;46.838;16.838;2023-07-30T00:04:54;1.17;;;1.10;;
64560;SDS011;50960;46.838;16.838;2023-07-30T00:07:20;1.30;;;1.20;;
64560;SDS011;50960;46.838;16.838;2023-07-30T00:09:46;1.50;;;1.40;;
64560;SDS011;50960;46.838;16.838;2023-07-30T00:12:13;1.85;;;1.00;;
64560;SDS011;50960;46.838;16.838;2023-07-30T00:14:39;1.52;;;1.00;;
64560;SDS011;50960;46.838;16.838;2023-07-30T00:17:05;0.90;;;0.88;;
64560;SDS011;50960;46.838;16.838;2023-07-30T00:19:31;0.90;;;0.90;;
64560;SDS011;50960;46.838;16.838;2023-07-30T00:21:58;0.80;;;0.80;;
64560;SDS011;50960;46.838;16.838;2023-07-30T00:24:25;0.80;;;0.80;;
64560;SDS011;50960;46.838;16.838;2023-07-30T00:26:51;1.35;;;1.20;;
64560;SDS011;50960;46.838;16.838;2023-07-30T00:29:18;1.05;;;1.02;;
64560;SDS011;50960;46.838;16.838;2023-07-30T00:31:45;1.30;;;1.20;;
64560;SDS011;50960;46.838;16.838;2023-07-30T00:34:11;1.00;;;1.00;;
64560;SDS011;50960;46.838;16.838;2023-07-30T00:36:37;0.88;;;0.88;;
64560;SDS011;50960;46.838;16.838;2023-07-30T00:39:03;1.55;;;1.10;;
64560;SDS011;50960;46.838;16.838;2023-07-30T00:41:30;1.50;;;1.00;;
64560;SDS011;50960;46.838;16.838;2023-07-30T00:43:58;2.10;;;1.10;;
64560;SDS011;50960;46.838;16.838;2023-07-30T00:46:24;1.45;;;1.10;;
64560;SDS011;50960;46.838;16.838;2023-07-30T00:48:51;5.03;;;1.30;;
64560;SDS011;50960;46.838;16.838;2023-07-30T00:51:18;1.13;;;0.95;;
64560;SDS011;50960;46.838;16.838;2023-07-30T00:53:45;1.50;;;1.38;;
64560;SDS011;50960;46.838;16.838;2023-07-30T00:56:12;1.13;;;1.02;;
64560;SDS011;50960;46.838;16.838;2023-07-30T00:58:39;1.17;;;1.10;;
64560;SDS011;50960;46.838;16.838;2023-07-30T01:01:06;1.35;;;1.00;;
64560;SDS011;50960;46.838;16.838;2023-07-30T01:03:33;1.30;;;1.20;;
64560;SDS011;50960;46.838;16.838;2023-07-30T01:06:00;1.13;;;1.08;;
64560;SDS011;50960;46.838;16.838;2023-07-30T01:08:26;2.50;;;1.42;;
64560;SDS011;50960;46.838;16.838;2023-07-30T01:10:53;1.00;;;0.95;;
64560;SDS011;50960;46.838;16.838;2023-07-30T01:13:19;2.05;;;1.05;;
64560;SDS011;50960;46.838;16.838;2023-07-30T01:15:46;1.52;;;1.30;;
64560;SDS011;50960;46.838;16.838;2023-07-30T01:18:13;1.90;;;1.35;;
64560;SDS011;50960;46.838;16.838;2023-07-30T01:20:39;2.10;;;1.20;;
64560;SDS011;50960;46.838;16.838;2023-07-30T01:23:06;1.75;;;1.30;;
64560;SDS011;50960;46.838;16.838;2023-07-30T01:25:33;2.55;;;1.23;;
64560;SDS011;50960;46.838;16.838;2023-07-30T01:28:02;1.40;;;1.30;;
64560;SDS011;50960;46.838;16.838;2023-07-30T01:30:33;1.73;;;1.45;;
64560;SDS011;50960;46.838;16.838;2023-07-30T01:33:05;1.55;;;1.45;;
64560;SDS011;50960;46.838;16.838;2023-07-30T01:35:32;2.53;;;1.40;;
64560;SDS011;50960;46.838;16.838;2023-07-30T01:37:59;1.40;;;1.10;;
64560;SDS011;50960;46.838;16.838;2023-07-30T01:40:29;2.00;;;1.50;;
64560;SDS011;50960;46.838;16.838;2023-07-30T01:42:55;1.60;;;1.50;;
64560;SDS011;50960;46.838;16.838;2023-07-30T01:45:21;2.00;;;1.20;;
64560;SDS011;50960;46.838;16.838;2023-07-30T01:47:48;1.60;;;1.50;;
64560;SDS011;50960;46.838;16.838;2023-07-30T01:50:14;1.63;;;1.50;;
64560;SDS011;50960;46.838;16.838;2023-07-30T01:52:40;1.40;;;1.30;;
64560;SDS011;50960;46.838;16.838;2023-07-30T01:55:07;3.45;;;1.50;;
64560;SDS011;50960;46.838;16.838;2023-07-30T01:57:33;1.58;;;1.48;;
64560;SDS011;50960;46.838;16.838;2023-07-30T02:00:00;2.00;;;1.45;;
64560;SDS011;50960;46.838;16.838;2023-07-30T02:02:26;1.55;;;1.45;;
64560;SDS011;50960;46.838;16.838;2023-07-30T02:04:52;1.90;;;1.60;;
64560;SDS011;50960;46.838;16.838;2023-07-30T02:07:19;1.58;;;1.48;;
64560;SDS011;50960;46.838;16.838;2023-07-30T02:09:45;1.83;;;1.70;;
64560;SDS011;50960;46.838;16.838;2023-07-30T02:12:12;2.33;;;1.67;;
64560;SDS011;50960;46.838;16.838;2023-07-30T02:14:38;1.60;;;1.50;;
64560;SDS011;50960;46.838;16.838;2023-07-30T02:17:05;1.55;;;1.40;;
64560;SDS011;50960;46.838;16.838;2023-07-30T02:19:31;1.75;;;1.40;;
64560;SDS011;50960;46.838;16.838;2023-07-30T02:21:57;1.20;;;1.10;;
64560;SDS011;50960;46.838;16.838;2023-07-30T02:24:23;1.50;;;1.40;;
64560;SDS011;50960;46.838;16.838;2023-07-30T02:26:50;2.67;;;1.52;;
64560;SDS011;50960;46.838;16.838;2023-07-30T02:29:16;1.55;;;1.45;;
64560;SDS011;50960;46.838;16.838;2023-07-30T02:31:42;1.80;;;1.42;;
64560;SDS011;50960;46.838;16.838;2023-07-30T02:34:08;1.60;;;1.50;;
64560;SDS011;50960;46.838;16.838;2023-07-30T02:36:35;1.88;;;1.77;;
64560;SDS011;50960;46.838;16.838;2023-07-30T02:39:02;1.50;;;1.40;;
64560;SDS011;50960;46.838;16.838;2023-07-30T02:41:29;2.20;;;1.20;;
64560;SDS011;50960;46.838;16.838;2023-07-30T02:43:55;1.45;;;1.35;;
64560;SDS011;50960;46.838;16.838;2023-07-30T02:46:21;3.60;;;1.40;;
64560;SDS011;50960;46.838;16.838;2023-07-30T02:48:47;1.45;;;1.40;;
64560;SDS011;50960;46.838;16.838;2023-07-30T02:51:14;2.42;;;1.38;;
64560;SDS011;50960;46.838;16.838;2023-07-30T02:53:42;1.50;;;1.40;;
64560;SDS011;50960;46.838;16.838;2023-07-30T02:56:09;1.73;;;1.33;;
64560;SDS011;50960;46.838;16.838;2023-07-30T02:58:36;2.60;;;1.60;;
64560;SDS011;50960;46.838;16.838;2023-07-30T03:01:06;2.20;;;1.50;;
64560;SDS011;50960;46.838;16.838;2023-07-30T03:03:33;1.33;;;1.20;;
64560;SDS011;50960;46.838;16.838;2023-07-30T03:05:59;2.47;;;1.45;;
64560;SDS011;50960;46.838;16.838;2023-07-30T03:08:26;1.77;;;1.42;;
64560;SDS011;50960;46.838;16.838;2023-07-30T03:10:52;1.70;;;1.60;;
64560;SDS011;50960;46.838;16.838;2023-07-30T03:13:18;1.55;;;1.45;;
64560;SDS011;50960;46.838;16.838;2023-07-30T03:15:45;1.70;;;1.60;;
64560;SDS011;50960;46.838;16.838;2023-07-30T03:18:12;1.55;;;1.45;;
64560;SDS011;50960;46.838;16.838;2023-07-30T03:20:38;1.60;;;1.50;;
64560;SDS011;50960;46.838;16.838;2023-07-30T03:23:04;1.52;;;1.42;;
64560;SDS011;50960;46.838;16.838;2023-07-30T03:25:30;3.28;;;1.50;;
64560;SDS011;50960;46.838;16.838;2023-07-30T03:27:57;1.85;;;1.75;;
64560;SDS011;50960;46.838;16.838;2023-07-30T03:30:23;1.60;;;1.50;;
64560;SDS011;50960;46.838;16.838;2023-07-30T03:32:49;2.35;;;1.52;;
64560;SDS011;50960;46.838;16.838;2023-07-30T03:35:16;1.67;;;1.58;;
64560;SDS011;50960;46.838;16.838;2023-07-30T03:37:42;2.92;;;1.92;;
64560;SDS011;50960;46.838;16.838;2023-07-30T03:40:09;1.67;;;1.52;;
64560;SDS011;50960;46.838;16.838;2023-07-30T03:42:36;1.63;;;1.52;;
64560;SDS011;50960;46.838;16.838;2023-07-30T03:45:02;1.40;;;1.30;;
64560;SDS011;50960;46.838;16.838;2023-07-30T03:47:29;1.67;;;1.58;;
64560;SDS011;50960;46.838;16.838;2023-07-30T03:49:55;1.42;;;1.33;;
64560;SDS011;50960;46.838;16.838;2023-07-30T03:52:21;2.70;;;1.52;;
64560;SDS011;50960;46.838;16.838;2023-07-30T03:54:48;1.92;;;1.33;;
64560;SDS011;50960;46.838;16.838;2023-07-30T03:57:14;1.50;;;1.40;;
64560;SDS011;50960;46.838;16.838;2023-07-30T03:59:40;1.60;;;1.50;;
64560;SDS011;50960;46.838;16.838;2023-07-30T04:02:06;2.33;;;1.42;;
64560;SDS011;50960;46.838;16.838;2023-07-30T04:04:33;1.95;;;1.48;;
64560;SDS011;50960;46.838;16.838;2023-07-30T04:06:59;1.65;;;1.55;;
64560;SDS011;50960;46.838;16.838;2023-07-30T04:09:25;1.83;;;1.73;;
64560;SDS011;50960;46.838;16.838;2023-07-30T04:11:52;1.65;;;1.55;;
64560;SDS011;50960;46.838;16.838;2023-07-30T04:14:18;1.63;;;1.40;;
64560;SDS011;50960;46.838;16.838;2023-07-30T04:16:44;1.48;;;1.35;;
64560;SDS011;50960;46.838;16.838;2023-07-30T04:19:12;2.83;;;1.80;;
64560;SDS011;50960;46.838;16.838;2023-07-30T04:21:39;1.75;;;1.60;;
64560;SDS011;50960;46.838;16.838;2023-07-30T04:24:05;1.85;;;1.60;;
64560;SDS011;50960;46.838;16.838;2023-07-30T04:26:32;1.70;;;1.60;;
64560;SDS011;50960;46.838;16.838;2023-07-30T04:28:58;1.73;;;1.60;;
64560;SDS011;50960;46.838;16.838;2023-07-30T04:31:24;1.70;;;1.60;;
64560;SDS011;50960;46.838;16.838;2023-07-30T04:33:51;1.42;;;1.33;;
64560;SDS011;50960;46.838;16.838;2023-07-30T04:36:18;2.60;;;1.65;;
64560;SDS011;50960;46.838;16.838;2023-07-30T04:38:45;1.58;;;1.40;;
64560;SDS011;50960;46.838;16.838;2023-07-30T04:41:12;3.10;;;1.45;;
64560;SDS011;50960;46.838;16.838;2023-07-30T04:43:40;1.50;;;1.40;;
64560;SDS011;50960;46.838;16.838;2023-07-30T04:46:06;1.50;;;1.40;;
64560;SDS011;50960;46.838;16.838;2023-07-30T04:48:33;1.75;;;1.65;;
64560;SDS011;50960;46.838;16.838;2023-07-30T04:50:59;1.70;;;1.60;;
64560;SDS011;50960;46.838;16.838;2023-07-30T04:53:26;1.77;;;1.67;;
64560;SDS011;50960;46.838;16.838;2023-07-30T04:55:55;1.65;;;1.55;;
64560;SDS011;50960;46.838;16.838;2023-07-30T04:58:23;2.40;;;1.70;;
64560;SDS011;50960;46.838;16.838;2023-07-30T05:00:51;3.03;;;1.75;;
64560;SDS011;50960;46.838;16.838;2023-07-30T05:03:17;1.70;;;1.60;;
64560;SDS011;50960;46.838;16.838;2023-07-30T05:05:44;1.70;;;1.60;;
64560;SDS011;50960;46.838;16.838;2023-07-30T05:08:10;2.20;;;2.00;;
64560;SDS011;50960;46.838;16.838;2023-07-30T05:10:37;3.33;;;3.03;;
64560;SDS011;50960;46.838;16.838;2023-07-30T05:13:03;4.40;;;4.00;;
64560;SDS011;50960;46.838;16.838;2023-07-30T05:15:29;3.95;;;2.15;;
64560;SDS011;50960;46.838;16.838;2023-07-30T05:17:56;1.88;;;1.77;;
64560;SDS011;50960;46.838;16.838;2023-07-30T05:20:22;4.05;;;3.38;;
64560;SDS011;50960;46.838;16.838;2023-07-30T05:22:48;2.63;;;1.95;;
64560;SDS011;50960;46.838;16.838;2023-07-30T05:25:15;3.47;;;2.60;;
64560;SDS011;50960;46.838;16.838;2023-07-30T05:27:41;2.30;;;2.10;;
64560;SDS011;50960;46.838;16.838;2023-07-30T05:30:08;3.75;;;3.45;;
64560;SDS011;50960;46.838;16.838;2023-07-30T05:32:35;2.20;;;2.00;;
64560;SDS011;50960;46.838;16.838;2023-07-30T05:35:01;3.55;;;2.13;;
64560;SDS011;50960;46.838;16.838;2023-07-30T05:37:28;1.83;;;1.73;;
64560;SDS011;50960;46.838;16.838;2023-07-30T05:39:54;2.15;;;2.00;;
64560;SDS011;50960;46.838;16.838;2023-07-30T05:42:20;2.85;;;1.73;;
64560;SDS011;50960;46.838;16.838;2023-07-30T05:44:47;2.28;;;1.85;;
64560;SDS011;50960;46.838;16.838;2023-07-30T05:47:14;4.80;;;4.13;;
64560;SDS011;50960;46.838;16.838;2023-07-30T05:49:40;2.22;;;1.90;;
64560;SDS011;50960;46.838;16.838;2023-07-30T05:52:07;1.90;;;1.58;;
64560;SDS011;50960;46.838;16.838;2023-07-30T05:54:33;2.10;;;1.90;;
64560;SDS011;50960;46.838;16.838;2023-07-30T05:56:59;1.98;;;1.88;;
64560;SDS011;50960;46.838;16.838;2023-07-30T05:59:26;2.50;;;2.08;;
64560;SDS011;50960;46.838;16.838;2023-07-30T06:01:52;3.60;;;2.10;;
64560;SDS011;50960;46.838;16.838;2023-07-30T06:04:18;2.35;;;2.00;;
64560;SDS011;50960;46.838;16.838;2023-07-30T06:06:45;4.20;;;1.80;;
64560;SDS011;50960;46.838;16.838;2023-07-30T06:09:11;2.08;;;1.85;;
64560;SDS011;50960;46.838;16.838;2023-07-30T06:11:38;3.15;;;2.10;;
64560;SDS011;50960;46.838;16.838;2023-07-30T06:14:04;2.30;;;2.10;;
64560;SDS011;50960;46.838;16.838;2023-07-30T06:16:30;2.40;;;2.13;;
64560;SDS011;50960;46.838;16.838;2023-07-30T06:18:56;2.50;;;2.30;;
64560;SDS011;50960;46.838;16.838;2023-07-30T06:21:23;3.40;;;2.05;;
64560;SDS011;50960;46.838;16.838;2023-07-30T06:23:49;2.45;;;1.90;;
64560;SDS011;50960;46.838;16.838;2023-07-30T06:29:39;2.83;;;2.20;;
64560;SDS011;50960;46.838;16.838;2023-07-30T06:32:05;2.65;;;2.42;;
64560;SDS011;50960;46.838;16.838;2023-07-30T06:34:32;2.30;;;2.10;;
64560;SDS011;50960;46.838;16.838;2023-07-30T06:36:58;4.30;;;3.53;;
64560;SDS011;50960;46.838;16.838;2023-07-30T06:39:25;2.55;;;2.20;;
64560;SDS011;50960;46.838;16.838;2023-07-30T06:41:51;2.92;;;2.47;;
64560;SDS011;50960;46.838;16.838;2023-07-30T06:44:17;3.53;;;2.40;;
64560;SDS011;50960;46.838;16.838;2023-07-30T06:46:43;4.57;;;2.63;;
64560;SDS011;50960;46.838;16.838;2023-07-30T06:49:10;4.07;;;2.55;;
64560;SDS011;50960;46.838;16.838;2023-07-30T06:51:36;3.35;;;2.30;;
64560;SDS011;50960;46.838;16.838;2023-07-30T06:54:02;3.58;;;2.47;;
64560;SDS011;50960;46.838;16.838;2023-07-30T06:56:28;4.13;;;3.63;;
64560;SDS011;50960;46.838;16.838;2023-07-30T06:58:55;4.97;;;3.95;;
64560;SDS011;50960;46.838;16.838;2023-07-30T07:01:22;3.38;;;3.00;;
64560;SDS011;50960;46.838;16.838;2023-07-30T07:03:48;2.53;;;2.33;;
64560;SDS011;50960;46.838;16.838;2023-07-30T07:06:15;2.88;;;2.58;;
64560;SDS011;50960;46.838;16.838;2023-07-30T07:08:41;3.40;;;2.95;;
64560;SDS011;50960;46.838;16.838;2023-07-30T07:11:07;6.20;;;5.60;;
64560;SDS011;50960;46.838;16.838;2023-07-30T07:13:33;4.93;;;3.40;;
64560;SDS011;50960;46.838;16.838;2023-07-30T07:16:00;2.35;;;2.13;;
64560;SDS011;50960;46.838;16.838;2023-07-30T07:18:26;2.72;;;2.40;;
64560;SDS011;50960;46.838;16.838;2023-07-30T07:20:52;2.45;;;2.25;;
64560;SDS011;50960;46.838;16.838;2023-07-30T07:23:18;2.40;;;2.20;;
64560;SDS011;50960;46.838;16.838;2023-07-30T07:25:45;3.97;;;2.30;;
64560;SDS011;50960;46.838;16.838;2023-07-30T07:28:11;3.63;;;2.55;;
64560;SDS011;50960;46.838;16.838;2023-07-30T07:30:38;4.07;;;2.30;;
64560;SDS011;50960;46.838;16.838;2023-07-30T07:33:04;3.60;;;2.30;;
64560;SDS011;50960;46.838;16.838;2023-07-30T07:35:31;5.63;;;2.33;;
64560;SDS011;50960;46.838;16.838;2023-07-30T07:37:58;3.05;;;2.38;;
64560;SDS011;50960;46.838;16.838;2023-07-30T07:40:24;2.53;;;2.33;;
64560;SDS011;50960;46.838;16.838;2023-07-30T07:42:50;2.35;;;2.15;;
64560;SDS011;50960;46.838;16.838;2023-07-30T07:45:16;1.92;;;1.83;;
64560;SDS011;50960;46.838;16.838;2023-07-30T07:47:43;2.30;;;1.95;;
64560;SDS011;50960;46.838;16.838;2023-07-30T07:50:09;2.42;;;2.00;;
64560;SDS011;50960;46.838;16.838;2023-07-30T07:52:35;3.58;;;2.20;;
64560;SDS011;50960;46.838;16.838;2023-07-30T07:55:01;2.95;;;2.20;;
64560;SDS011;50960;46.838;16.838;2023-07-30T07:57:28;2.33;;;2.22;;
64560;SDS011;50960;46.838;16.838;2023-07-30T07:59:56;2.90;;;2.55;;
64560;SDS011;50960;46.838;16.838;2023-07-30T08:02:22;2.72;;;2.53;;
64560;SDS011;50960;46.838;16.838;2023-07-30T08:04:49;2.90;;;2.50;;
64560;SDS011;50960;46.838;16.838;2023-07-30T08:07:17;2.50;;;2.22;;
64560;SDS011;50960;46.838;16.838;2023-07-30T08:09:43;2.70;;;2.50;;
64560;SDS011;50960;46.838;16.838;2023-07-30T08:12:09;2.35;;;2.13;;
64560;SDS011;50960;46.838;16.838;2023-07-30T08:14:36;2.70;;;2.50;;
64560;SDS011;50960;46.838;16.838;2023-07-30T08:17:02;2.90;;;2.20;;
64560;SDS011;50960;46.838;16.838;2023-07-30T08:19:28;1.98;;;1.77;;
64560;SDS011;50960;46.838;16.838;2023-07-30T08:21:55;2.47;;;2.28;;
64560;SDS011;50960;46.838;16.838;2023-07-30T08:24:22;2.35;;;2.20;;
64560;SDS011;50960;46.838;16.838;2023-07-30T08:26:48;3.47;;;3.03;;
64560;SDS011;50960;46.838;16.838;2023-07-30T08:29:15;1.95;;;1.73;;
64560;SDS011;50960;46.838;16.838;2023-07-30T08:31:42;2.72;;;2.33;;
64560;SDS011;50960;46.838;16.838;2023-07-30T08:34:08;2.58;;;2.20;;
64560;SDS011;50960;46.838;16.838;2023-07-30T08:36:34;2.45;;;2.25;;
64560;SDS011;50960;46.838;16.838;2023-07-30T08:39:02;2.60;;;2.40;;
64560;SDS011;50960;46.838;16.838;2023-07-30T08:41:29;2.70;;;2.50;;
64560;SDS011;50960;46.838;16.838;2023-07-30T08:43:55;2.47;;;2.20;;
64560;SDS011;50960;46.838;16.838;2023-07-30T08:46:22;2.33;;;2.13;;
64560;SDS011;50960;46.838;16.838;2023-07-30T08:48:48;2.55;;;2.35;;
64560;SDS011;50960;46.838;16.838;2023-07-30T08:51:14;2.10;;;2.00;;
64560;SDS011;50960;46.838;16.838;2023-07-30T08:53:42;2.30;;;2.10;;
64560;SDS011;50960;46.838;16.838;2023-07-30T08:56:09;3.35;;;2.20;;
64560;SDS011;50960;46.838;16.838;2023-07-30T08:58:36;1.90;;;1.80;;
64560;SDS011;50960;46.838;16.838;2023-07-30T09:01:05;2.00;;;1.90;;
64560;SDS011;50960;46.838;16.838;2023-07-30T09:03:38;2.30;;;2.20;;
64560;SDS011;50960;46.838;16.838;2023-07-30T09:06:05;2.25;;;2.05;;
64560;SDS011;50960;46.838;16.838;2023-07-30T09:08:32;2.33;;;2.13;;
64560;SDS011;50960;46.838;16.838;2023-07-30T09:11:11;1.83;;;1.70;;
64560;SDS011;50960;46.838;16.838;2023-07-30T09:13:39;2.03;;;1.83;;
64560;SDS011;50960;46.838;16.838;2023-07-30T09:16:10;2.20;;;2.05;;
64560;SDS011;50960;46.838;16.838;2023-07-30T09:18:44;2.65;;;2.20;;
64560;SDS011;50960;46.838;16.838;2023-07-30T09:21:12;2.97;;;2.13;;
64560;SDS011;50960;46.838;16.838;2023-07-30T09:23:39;8.13;;;3.67;;
64560;SDS011;50960;46.838;16.838;2023-07-30T09:26:09;4.07;;;3.33;;
64560;SDS011;50960;46.838;16.838;2023-07-30T09:28:36;3.15;;;2.85;;
64560;SDS011;50960;46.838;16.838;2023-07-30T09:31:03;3.13;;;2.90;;
64560;SDS011;50960;46.838;16.838;2023-07-30T09:33:33;2.33;;;2.20;;
64560;SDS011;50960;46.838;16.838;2023-07-30T09:36:03;2.20;;;2.00;;
64560;SDS011;50960;46.838;16.838;2023-07-30T09:38:37;2.35;;;2.15;;
64560;SDS011;50960;46.838;16.838;2023-07-30T09:41:07;2.05;;;1.85;;
64560;SDS011;50960;46.838;16.838;2023-07-30T09:43:35;2.40;;;2.20;;
64560;SDS011;50960;46.838;16.838;2023-07-30T09:46:05;2.30;;;2.10;;
64560;SDS011;50960;46.838;16.838;2023-07-30T09:48:32;1.98;;;1.88;;
64560;SDS011;50960;46.838;16.838;2023-07-30T09:51:03;2.30;;;2.10;;
64560;SDS011;50960;46.838;16.838;2023-07-30T09:53:31;2.30;;;2.08;;
64560;SDS011;50960;46.838;16.838;2023-07-30T09:56:02;2.00;;;1.80;;
64560;SDS011;50960;46.838;16.838;2023-07-30T09:58:29;1.90;;;1.80;;
64560;SDS011;50960;46.838;16.838;2023-07-30T10:00:59;1.90;;;1.80;;
64560;SDS011;50960;46.838;16.838;2023-07-30T10:03:26;2.10;;;1.90;;
64560;SDS011;50960;46.838;16.838;2023-07-30T10:05:55;2.80;;;1.98;;
64560;SDS011;50960;46.838;16.838;2023-07-30T10:08:31;3.35;;;2.00;;
64560;SDS011;50960;46.838;16.838;2023-07-30T10:11:00;3.40;;;2.03;;
64560;SDS011;50960;46.838;16.838;2023-07-30T10:13:30;2.13;;;1.60;;
64560;SDS011;50960;46.838;16.838;2023-07-30T10:15:57;1.60;;;1.50;;
64560;SDS011;50960;46.838;16.838;2023-07-30T10:21:24;2.78;;;2.58;;
64560;SDS011;50960;46.838;16.838;2023-07-30T10:24:02;2.53;;;2.20;;
64560;SDS011;50960;46.838;16.838;2023-07-30T10:26:33;3.15;;;1.90;;
64560;SDS011;50960;46.838;16.838;2023-07-30T10:29:11;2.20;;;1.92;;
64560;SDS011;50960;46.838;16.838;2023-07-30T10:31:39;3.15;;;2.00;;
64560;SDS011;50960;46.838;16.838;2023-07-30T10:34:27;2.17;;;2.00;;
64560;SDS011;50960;46.838;16.838;2023-07-30T10:37:18;2.60;;;2.00;;
64560;SDS011;50960;46.838;16.838;2023-07-30T10:39:49;2.42;;;1.90;;
64560;SDS011;50960;46.838;16.838;2023-07-30T10:42:16;2.67;;;2.10;;
64560;SDS011;50960;46.838;16.838;2023-07-30T10:44:44;2.10;;;2.00;;
64560;SDS011;50960;46.838;16.838;2023-07-30T10:47:11;2.35;;;1.83;;
64560;SDS011;50960;46.838;16.838;2023-07-30T10:49:38;3.08;;;2.10;;
64560;SDS011;50960;46.838;16.838;2023-07-30T10:52:06;2.25;;;1.80;;
64560;SDS011;50960;46.838;16.838;2023-07-30T10:54:33;2.05;;;1.85;;
64560;SDS011;50960;46.838;16.838;2023-07-30T10:57:03;2.13;;;1.70;;
64560;SDS011;50960;46.838;16.838;2023-07-30T10:59:36;1.80;;;1.70;;
64560;SDS011;50960;46.838;16.838;2023-07-30T11:02:03;2.30;;;1.90;;
64560;SDS011;50960;46.838;16.838;2023-07-30T11:04:33;1.77;;;1.67;;
64560;SDS011;50960;46.838;16.838;2023-07-30T11:06:59;2.40;;;1.83;;
64560;SDS011;50960;46.838;16.838;2023-07-30T11:09:26;1.70;;;1.60;;
64560;SDS011;50960;46.838;16.838;2023-07-30T11:11:54;2.05;;;1.55;;
64560;SDS011;50960;46.838;16.838;2023-07-30T11:14:22;1.90;;;1.70;;
64560;SDS011;50960;46.838;16.838;2023-07-30T11:16:52;1.90;;;1.80;;
64560;SDS011;50960;46.838;16.838;2023-07-30T11:19:21;1.73;;;1.63;;
64560;SDS011;50960;46.838;16.838;2023-07-30T11:21:48;1.75;;;1.65;;
64560;SDS011;50960;46.838;16.838;2023-07-30T11:24:15;1.90;;;1.80;;
64560;SDS011;50960;46.838;16.838;2023-07-30T11:26:42;3.63;;;2.85;;
64560;SDS011;50960;46.838;16.838;2023-07-30T11:29:18;1.92;;;1.83;;
64560;SDS011;50960;46.838;16.838;2023-07-30T11:31:46;2.10;;;2.00;;
64560;SDS011;50960;46.838;16.838;2023-07-30T11:34:13;2.10;;;2.00;;
64560;SDS011;50960;46.838;16.838;2023-07-30T11:36:41;3.25;;;1.73;;
64560;SDS011;50960;46.838;16.838;2023-07-30T11:39:08;2.10;;;1.85;;
64560;SDS011;50960;46.838;16.838;2023-07-30T11:41:35;2.20;;;2.00;;
64560;SDS011;50960;46.838;16.838;2023-07-30T11:44:02;2.00;;;1.90;;
64560;SDS011;50960;46.838;16.838;2023-07-30T11:46:29;2.00;;;1.90;;
64560;SDS011;50960;46.838;16.838;2023-07-30T11:49:12;2.10;;;1.90;;
64560;SDS011;50960;46.838;16.838;2023-07-30T11:51:46;1.83;;;1.67;;
64560;SDS011;50960;46.838;16.838;2023-07-30T11:54:21;1.73;;;1.63;;
64560;SDS011;50960;46.838;16.838;2023-07-30T11:56:54;2.58;;;1.80;;
64560;SDS011;50960;46.838;16.838;2023-07-30T11:59:21;1.98;;;1.88;;
64560;SDS011;50960;46.838;16.838;2023-07-30T12:01:48;2.08;;;1.90;;
64560;SDS011;50960;46.838;16.838;2023-07-30T12:04:14;2.03;;;1.80;;
64560;SDS011;50960;46.838;16.838;2023-07-30T12:06:42;1.70;;;1.60;;
64560;SDS011;50960;46.838;16.838;2023-07-30T12:09:18;1.52;;;1.40;;
64560;SDS011;50960;46.838;16.838;2023-07-30T12:11:50;2.85;;;1.60;;
64560;SDS011;50960;46.838;16.838;2023-07-30T12:14:21;1.63;;;1.52;;
64560;SDS011;50960;46.838;16.838;2023-07-30T12:16:51;2.78;;;1.60;;
64560;SDS011;50960;46.838;16.838;2023-07-30T12:19:17;1.70;;;1.60;;
64560;SDS011;50960;46.838;16.838;2023-07-30T12:21:43;1.67;;;1.58;;
64560;SDS011;50960;46.838;16.838;2023-07-30T12:24:09;1.77;;;1.67;;
64560;SDS011;50960;46.838;16.838;2023-07-30T12:26:36;1.80;;;1.70;;
64560;SDS011;50960;46.838;16.838;2023-07-30T12:29:02;1.55;;;1.45;;
64560;SDS011;50960;46.838;16.838;2023-07-30T12:31:30;1.92;;;1.83;;
64560;SDS011;50960;46.838;16.838;2023-07-30T12:33:56;2.35;;;2.15;;
64560;SDS011;50960;46.838;16.838;2023-07-30T12:36:22;2.30;;;2.10;;
64560;SDS011;50960;46.838;16.838;2023-07-30T12:38:49;1.70;;;1.60;;
64560;SDS011;50960;46.838;16.838;2023-07-30T12:41:17;2.38;;;1.60;;
64560;SDS011;50960;46.838;16.838;2023-07-30T12:43:45;1.40;;;1.30;;
64560;SDS011;50960;46.838;16.838;2023-07-30T12:46:11;1.48;;;1.38;;
64560;SDS011;50960;46.838;16.838;2023-07-30T12:48:38;1.50;;;1.40;;
64560;SDS011;50960;46.838;16.838;2023-07-30T12:51:05;1.50;;;1.40;;
64560;SDS011;50960;46.838;16.838;2023-07-30T12:53:32;1.70;;;1.40;;
64560;SDS011;50960;46.838;16.838;2023-07-30T12:55:58;1.27;;;1.17;;
64560;SDS011;50960;46.838;16.838;2023-07-30T12:58:24;1.40;;;1.30;;
64560;SDS011;50960;46.838;16.838;2023-07-30T13:00:50;1.70;;;1.40;;
64560;SDS011;50960;46.838;16.838;2023-07-30T13:03:17;1.40;;;1.30;;
64560;SDS011;50960;46.838;16.838;2023-07-30T13:05:43;1.45;;;1.45;;
64560;SDS011;50960;46.838;16.838;2023-07-30T13:08:09;1.20;;;1.20;;
64560;SDS011;50960;46.838;16.838;2023-07-30T13:10:35;1.50;;;1.40;;
64560;SDS011;50960;46.838;16.838;2023-07-30T13:13:02;3.17;;;2.97;;
64560;SDS011;50960;46.838;16.838;2023-07-30T13:15:31;2.35;;;2.15;;
64560;SDS011;50960;46.838;16.838;2023-07-30T13:17:57;2.15;;;1.40;;
64560;SDS011;50960;46.838;16.838;2023-07-30T13:20:24;2.15;;;1.67;;
64560;SDS011;50960;46.838;16.838;2023-07-30T13:22:50;1.90;;;1.70;;
64560;SDS011;50960;46.838;16.838;2023-07-30T13:25:17;1.50;;;1.40;;
64560;SDS011;50960;46.838;16.838;2023-07-30T13:27:44;1.50;;;1.40;;
64560;SDS011;50960;46.838;16.838;2023-07-30T13:30:10;1.85;;;1.30;;
64560;SDS011;50960;46.838;16.838;2023-07-30T13:32:36;1.60;;;1.50;;
64560;SDS011;50960;46.838;16.838;2023-07-30T13:35:03;1.45;;;1.35;;
64560;SDS011;50960;46.838;16.838;2023-07-30T13:37:29;1.88;;;1.50;;
64560;SDS011;50960;46.838;16.838;2023-07-30T13:39:56;1.50;;;1.40;;
64560;SDS011;50960;46.838;16.838;2023-07-30T13:42:23;1.95;;;1.35;;
64560;SDS011;50960;46.838;16.838;2023-07-30T13:44:51;1.35;;;1.30;;
64560;SDS011;50960;46.838;16.838;2023-07-30T13:47:22;1.38;;;1.30;;
64560;SDS011;50960;46.838;16.838;2023-07-30T13:49:49;1.45;;;1.35;;
64560;SDS011;50960;46.838;16.838;2023-07-30T13:52:16;1.40;;;1.30;;
64560;SDS011;50960;46.838;16.838;2023-07-30T13:54:43;2.25;;;1.50;;
64560;SDS011;50960;46.838;16.838;2023-07-30T13:57:10;1.77;;;1.48;;
64560;SDS011;50960;46.838;16.838;2023-07-30T13:59:37;1.58;;;1.48;;
64560;SDS011;50960;46.838;16.838;2023-07-30T14:02:05;1.58;;;1.48;;
64560;SDS011;50960;46.838;16.838;2023-07-30T14:04:32;1.60;;;1.50;;
64560;SDS011;50960;46.838;16.838;2023-07-30T14:06:58;1.77;;;1.67;;
64560;SDS011;50960;46.838;16.838;2023-07-30T14:09:24;1.70;;;1.60;;
64560;SDS011;50960;46.838;16.838;2023-07-30T14:11:58;1.73;;;1.63;;
64560;SDS011;50960;46.838;16.838;2023-07-30T14:14:24;1.70;;;1.60;;
64560;SDS011;50960;46.838;16.838;2023-07-30T14:16:53;1.55;;;1.45;;
64560;SDS011;50960;46.838;16.838;2023-07-30T14:19:20;1.67;;;1.58;;
64560;SDS011;50960;46.838;16.838;2023-07-30T14:21:46;1.80;;;1.55;;
64560;SDS011;50960;46.838;16.838;2023-07-30T14:24:12;1.80;;;1.70;;
64560;SDS011;50960;46.838;16.838;2023-07-30T14:26:39;1.60;;;1.50;;
64560;SDS011;50960;46.838;16.838;2023-07-30T14:29:05;1.50;;;1.40;;
64560;SDS011;50960;46.838;16.838;2023-07-30T14:31:31;1.60;;;1.50;;
64560;SDS011;50960;46.838;16.838;2023-07-30T14:33:58;1.60;;;1.50;;
64560;SDS011;50960;46.838;16.838;2023-07-30T14:36:24;2.08;;;1.90;;
64560;SDS011;50960;46.838;16.838;2023-07-30T14:38:50;1.90;;;1.80;;